sensor_id;sensor_type;location;lat;lon;timestamp;P1;durP1;ratioP1;P2;durP2;ratioP2
73672;SDS011;61972;19.480;-99.240;2023-07-31T00:01:51;4.32;;;2.25;;
73672;SDS011;61972;19.480;-99.240;2023-07-31T00:04:17;4.55;;;2.00;;
73672;SDS011;61972;19.480;-99.240;2023-07-31T00:06:43;5.13;;;2.20;;
73672;SDS011;61972;19.480;-99.240;2023-07-31T00:09:09;3.25;;;1.80;;
73672;SDS011;61972;19.480;-99.240;2023-07-31T00:11:35;5.57;;;2.10;;
73672;SDS011;61972;19.480;-99.240;2023-07-31T00:14:01;4.82;;;1.90;;
73672;SDS011;61972;19.480;-99.240;2023-07-31T00:16:27;3.97;;;1.83;;
73672;SDS011;61972;19.480;-99.240;2023-07-31T00:18:53;5.97;;;1.90;;
73672;SDS011;61972;19.480;-99.240;2023-07-31T00:21:20;4.97;;;1.73;;
73672;SDS011;61972;19.480;-99.240;2023-07-31T00:23:46;3.40;;;1.80;;
73672;SDS011;61972;19.480;-99.240;2023-07-31T00:26:12;5.50;;;2.15;;
73672;SDS011;61972;19.480;-99.240;2023-07-31T00:28:38;5.22;;;2.20;;
73672;SDS011;61972;19.480;-99.240;2023-07-31T00:31:05;4.13;;;1.83;;
73672;SDS011;61972;19.480;-99.240;2023-07-31T00:33:31;3.88;;;2.08;;
73672;SDS011;61972;19.480;-99.240;2023-07-31T00:35:57;3.05;;;1.70;;
73672;SDS011;61972;19.480;-99.240;2023-07-31T00:38:23;5.93;;;2.17;;
73672;SDS011;61972;19.480;-99.240;2023-07-31T00:40:49;2.72;;;1.75;;
73672;SDS011;61972;19.480;-99.240;2023-07-31T00:43:15;4.13;;;1.80;;
73672;SDS011;61972;19.480;-99.240;2023-07-31T00:45:41;3.20;;;1.77;;
73672;SDS011;61972;19.480;-99.240;2023-07-31T00:48:07;3.92;;;1.75;;
73672;SDS011;61972;19.480;-99.240;2023-07-31T00:50:34;2.85;;;1.60;;
73672;SDS011;61972;19.480;-99.240;2023-07-31T00:53:01;2.97;;;1.98;;
73672;SDS011;61972;19.480;-99.240;2023-07-31T00:55:27;5.13;;;2.07;;
73672;SDS011;61972;19.480;-99.240;2023-07-31T00:57:54;4.80;;;2.17;;
73672;SDS011;61972;19.480;-99.240;2023-07-31T01:00:21;3.72;;;2.20;;
73672;SDS011;61972;19.480;-99.240;2023-07-31T01:02:48;3.05;;;1.80;;
73672;SDS011;61972;19.480;-99.240;2023-07-31T01:05:16;3.58;;;2.28;;
73672;SDS011;61972;19.480;-99.240;2023-07-31T01:07:52;5.07;;;2.20;;
73672;SDS011;61972;19.480;-99.240;2023-07-31T01:10:37;3.88;;;2.40;;
73672;SDS011;61972;19.480;-99.240;2023-07-31T01:13:10;3.78;;;2.33;;
73672;SDS011;61972;19.480;-99.240;2023-07-31T01:15:37;2.70;;;1.80;;
73672;SDS011;61972;19.480;-99.240;2023-07-31T01:18:03;5.10;;;1.92;;
73672;SDS011;61972;19.480;-99.240;2023-07-31T01:20:30;3.10;;;2.00;;
73672;SDS011;61972;19.480;-99.240;2023-07-31T01:31:22;4.10;;;2.15;;
73672;SDS011;61972;19.480;-99.240;2023-07-31T01:33:52;5.37;;;2.40;;
73672;SDS011;61972;19.480;-99.240;2023-07-31T01:36:20;4.70;;;2.00;;
73672;SDS011;61972;19.480;-99.240;2023-07-31T01:38:46;3.63;;;1.88;;
73672;SDS011;61972;19.480;-99.240;2023-07-31T01:41:12;5.03;;;2.10;;
73672;SDS011;61972;19.480;-99.240;2023-07-31T01:43:39;3.50;;;2.00;;
73672;SDS011;61972;19.480;-99.240;2023-07-31T01:46:05;3.60;;;1.77;;
73672;SDS011;61972;19.480;-99.240;2023-07-31T01:48:31;6.05;;;2.08;;
73672;SDS011;61972;19.480;-99.240;2023-07-31T01:51:01;5.75;;;1.98;;
73672;SDS011;61972;19.480;-99.240;2023-07-31T01:53:27;3.47;;;2.10;;
73672;SDS011;61972;19.480;-99.240;2023-07-31T01:55:54;3.40;;;2.03;;
73672;SDS011;61972;19.480;-99.240;2023-07-31T01:58:20;9.50;;;2.00;;
73672;SDS011;61972;19.480;-99.240;2023-07-31T02:00:46;6.65;;;1.85;;
73672;SDS011;61972;19.480;-99.240;2023-07-31T02:03:12;4.28;;;1.80;;
73672;SDS011;61972;19.480;-99.240;2023-07-31T02:05:45;8.07;;;2.08;;
73672;SDS011;61972;19.480;-99.240;2023-07-31T02:08:11;4.93;;;2.03;;
73672;SDS011;61972;19.480;-99.240;2023-07-31T02:10:38;4.17;;;2.00;;
73672;SDS011;61972;19.480;-99.240;2023-07-31T02:13:04;3.40;;;2.20;;
73672;SDS011;61972;19.480;-99.240;2023-07-31T02:15:30;6.00;;;2.00;;
73672;SDS011;61972;19.480;-99.240;2023-07-31T02:17:56;6.53;;;2.20;;
73672;SDS011;61972;19.480;-99.240;2023-07-31T02:20:23;8.70;;;2.42;;
73672;SDS011;61972;19.480;-99.240;2023-07-31T02:22:49;5.27;;;2.10;;
73672;SDS011;61972;19.480;-99.240;2023-07-31T02:25:15;5.05;;;1.90;;
73672;SDS011;61972;19.480;-99.240;2023-07-31T02:27:41;4.97;;;1.88;;
73672;SDS011;61972;19.480;-99.240;2023-07-31T02:30:07;4.88;;;2.30;;
73672;SDS011;61972;19.480;-99.240;2023-07-31T02:32:34;4.53;;;2.28;;
73672;SDS011;61972;19.480;-99.240;2023-07-31T02:35:00;4.70;;;2.30;;
73672;SDS011;61972;19.480;-99.240;2023-07-31T02:37:26;3.65;;;1.98;;
73672;SDS011;61972;19.480;-99.240;2023-07-31T02:39:54;4.47;;;2.50;;
73672;SDS011;61972;19.480;-99.240;2023-07-31T02:42:20;4.63;;;2.38;;
73672;SDS011;61972;19.480;-99.240;2023-07-31T02:44:46;3.50;;;1.90;;
73672;SDS011;61972;19.480;-99.240;2023-07-31T02:47:12;5.90;;;2.23;;
73672;SDS011;61972;19.480;-99.240;2023-07-31T02:49:38;6.13;;;2.55;;
73672;SDS011;61972;19.480;-99.240;2023-07-31T02:52:05;4.10;;;2.60;;
73672;SDS011;61972;19.480;-99.240;2023-07-31T02:54:31;3.95;;;2.30;;
73672;SDS011;61972;19.480;-99.240;2023-07-31T02:56:57;4.13;;;2.45;;
73672;SDS011;61972;19.480;-99.240;2023-07-31T02:59:23;3.57;;;2.13;;
73672;SDS011;61972;19.480;-99.240;2023-07-31T03:01:50;5.88;;;2.03;;
73672;SDS011;61972;19.480;-99.240;2023-07-31T03:04:16;4.00;;;2.25;;
73672;SDS011;61972;19.480;-99.240;2023-07-31T03:06:42;3.88;;;2.10;;
73672;SDS011;61972;19.480;-99.240;2023-07-31T03:09:08;3.38;;;2.15;;
73672;SDS011;61972;19.480;-99.240;2023-07-31T03:11:34;3.90;;;1.80;;
73672;SDS011;61972;19.480;-99.240;2023-07-31T03:14:00;3.67;;;2.38;;
73672;SDS011;61972;19.480;-99.240;2023-07-31T03:16:27;3.40;;;2.22;;
73672;SDS011;61972;19.480;-99.240;2023-07-31T03:18:53;3.67;;;2.30;;
73672;SDS011;61972;19.480;-99.240;2023-07-31T03:21:20;5.43;;;2.17;;
73672;SDS011;61972;19.480;-99.240;2023-07-31T03:23:46;3.47;;;2.00;;
73672;SDS011;61972;19.480;-99.240;2023-07-31T03:26:12;4.35;;;1.77;;
73672;SDS011;61972;19.480;-99.240;2023-07-31T03:28:38;3.53;;;2.00;;
73672;SDS011;61972;19.480;-99.240;2023-07-31T03:31:04;4.32;;;2.20;;
73672;SDS011;61972;19.480;-99.240;2023-07-31T03:33:31;3.33;;;2.15;;
73672;SDS011;61972;19.480;-99.240;2023-07-31T03:35:57;3.20;;;1.97;;
73672;SDS011;61972;19.480;-99.240;2023-07-31T03:38:23;3.42;;;2.00;;
73672;SDS011;61972;19.480;-99.240;2023-07-31T03:40:49;3.75;;;1.90;;
73672;SDS011;61972;19.480;-99.240;2023-07-31T03:43:15;4.13;;;1.88;;
73672;SDS011;61972;19.480;-99.240;2023-07-31T03:45:41;4.50;;;2.25;;
73672;SDS011;61972;19.480;-99.240;2023-07-31T03:48:07;3.33;;;1.90;;
73672;SDS011;61972;19.480;-99.240;2023-07-31T03:50:33;4.43;;;2.00;;
73672;SDS011;61972;19.480;-99.240;2023-07-31T03:53:00;3.13;;;1.70;;
73672;SDS011;61972;19.480;-99.240;2023-07-31T03:55:26;3.15;;;1.85;;
73672;SDS011;61972;19.480;-99.240;2023-07-31T03:57:52;2.53;;;1.88;;
73672;SDS011;61972;19.480;-99.240;2023-07-31T04:00:18;3.00;;;2.00;;
73672;SDS011;61972;19.480;-99.240;2023-07-31T04:02:44;2.95;;;2.00;;
73672;SDS011;61972;19.480;-99.240;2023-07-31T04:05:10;4.05;;;1.88;;
73672;SDS011;61972;19.480;-99.240;2023-07-31T04:07:36;2.67;;;1.80;;
73672;SDS011;61972;19.480;-99.240;2023-07-31T04:10:03;2.92;;;1.80;;
73672;SDS011;61972;19.480;-99.240;2023-07-31T04:12:29;3.83;;;1.97;;
73672;SDS011;61972;19.480;-99.240;2023-07-31T04:14:55;3.28;;;1.70;;
73672;SDS011;61972;19.480;-99.240;2023-07-31T04:17:21;3.35;;;1.42;;
73672;SDS011;61972;19.480;-99.240;2023-07-31T04:19:47;2.75;;;1.60;;
73672;SDS011;61972;19.480;-99.240;2023-07-31T04:22:13;3.08;;;1.90;;
73672;SDS011;61972;19.480;-99.240;2023-07-31T04:24:40;3.40;;;1.40;;
73672;SDS011;61972;19.480;-99.240;2023-07-31T04:27:06;3.28;;;1.73;;
73672;SDS011;61972;19.480;-99.240;2023-07-31T04:29:32;2.78;;;1.73;;
73672;SDS011;61972;19.480;-99.240;2023-07-31T04:31:58;3.60;;;1.70;;
73672;SDS011;61972;19.480;-99.240;2023-07-31T04:34:24;3.08;;;1.67;;
73672;SDS011;61972;19.480;-99.240;2023-07-31T04:36:50;3.17;;;1.77;;
73672;SDS011;61972;19.480;-99.240;2023-07-31T04:39:16;2.70;;;1.70;;
73672;SDS011;61972;19.480;-99.240;2023-07-31T04:41:42;2.90;;;1.77;;
73672;SDS011;61972;19.480;-99.240;2023-07-31T04:44:08;3.25;;;1.80;;
73672;SDS011;61972;19.480;-99.240;2023-07-31T04:46:36;2.50;;;1.52;;
73672;SDS011;61972;19.480;-99.240;2023-07-31T04:49:02;2.47;;;1.47;;
73672;SDS011;61972;19.480;-99.240;2023-07-31T04:51:29;3.35;;;1.60;;
73672;SDS011;61972;19.480;-99.240;2023-07-31T04:53:55;2.33;;;1.40;;
73672;SDS011;61972;19.480;-99.240;2023-07-31T04:56:22;3.55;;;1.60;;
73672;SDS011;61972;19.480;-99.240;2023-07-31T04:58:48;2.65;;;1.52;;
73672;SDS011;61972;19.480;-99.240;2023-07-31T05:01:14;3.33;;;1.57;;
73672;SDS011;61972;19.480;-99.240;2023-07-31T05:03:40;2.65;;;1.60;;
73672;SDS011;61972;19.480;-99.240;2023-07-31T05:06:06;1.90;;;1.10;;
73672;SDS011;61972;19.480;-99.240;2023-07-31T05:08:32;2.75;;;1.40;;
73672;SDS011;61972;19.480;-99.240;2023-07-31T05:10:58;2.80;;;1.60;;
73672;SDS011;61972;19.480;-99.240;2023-07-31T05:13:26;2.40;;;1.40;;
73672;SDS011;61972;19.480;-99.240;2023-07-31T05:15:52;3.00;;;1.30;;
73672;SDS011;61972;19.480;-99.240;2023-07-31T05:18:18;2.35;;;1.27;;
73672;SDS011;61972;19.480;-99.240;2023-07-31T05:20:44;2.45;;;1.33;;
73672;SDS011;61972;19.480;-99.240;2023-07-31T05:23:10;2.13;;;1.38;;
73672;SDS011;61972;19.480;-99.240;2023-07-31T05:25:36;2.00;;;1.17;;
73672;SDS011;61972;19.480;-99.240;2023-07-31T05:28:02;2.30;;;1.23;;
73672;SDS011;61972;19.480;-99.240;2023-07-31T05:30:31;2.17;;;1.45;;
73672;SDS011;61972;19.480;-99.240;2023-07-31T05:32:57;2.00;;;1.20;;
73672;SDS011;61972;19.480;-99.240;2023-07-31T05:35:24;2.53;;;1.60;;
73672;SDS011;61972;19.480;-99.240;2023-07-31T05:37:50;2.30;;;1.40;;
73672;SDS011;61972;19.480;-99.240;2023-07-31T05:40:16;2.63;;;1.48;;
73672;SDS011;61972;19.480;-99.240;2023-07-31T05:42:42;2.38;;;1.17;;
73672;SDS011;61972;19.480;-99.240;2023-07-31T05:45:08;1.65;;;1.00;;
73672;SDS011;61972;19.480;-99.240;2023-07-31T05:47:35;3.40;;;1.30;;
73672;SDS011;61972;19.480;-99.240;2023-07-31T05:50:01;3.13;;;1.47;;
73672;SDS011;61972;19.480;-99.240;2023-07-31T05:52:27;2.60;;;1.30;;
73672;SDS011;61972;19.480;-99.240;2023-07-31T05:54:54;3.00;;;1.40;;
73672;SDS011;61972;19.480;-99.240;2023-07-31T05:57:20;2.75;;;1.38;;
73672;SDS011;61972;19.480;-99.240;2023-07-31T05:59:46;2.35;;;1.38;;
73672;SDS011;61972;19.480;-99.240;2023-07-31T06:02:12;3.73;;;1.20;;
73672;SDS011;61972;19.480;-99.240;2023-07-31T06:04:39;2.08;;;1.10;;
73672;SDS011;61972;19.480;-99.240;2023-07-31T06:07:05;2.00;;;1.13;;
73672;SDS011;61972;19.480;-99.240;2023-07-31T06:09:31;2.15;;;0.90;;
73672;SDS011;61972;19.480;-99.240;2023-07-31T06:11:57;2.05;;;0.93;;
73672;SDS011;61972;19.480;-99.240;2023-07-31T06:14:23;2.23;;;1.10;;
73672;SDS011;61972;19.480;-99.240;2023-07-31T06:16:49;2.30;;;1.10;;
73672;SDS011;61972;19.480;-99.240;2023-07-31T06:19:15;1.90;;;1.00;;
73672;SDS011;61972;19.480;-99.240;2023-07-31T06:21:42;1.70;;;0.95;;
73672;SDS011;61972;19.480;-99.240;2023-07-31T06:24:09;2.15;;;1.20;;
73672;SDS011;61972;19.480;-99.240;2023-07-31T06:26:35;2.80;;;1.27;;
73672;SDS011;61972;19.480;-99.240;2023-07-31T06:29:01;2.35;;;1.10;;
73672;SDS011;61972;19.480;-99.240;2023-07-31T06:31:27;2.25;;;0.98;;
73672;SDS011;61972;19.480;-99.240;2023-07-31T06:33:53;1.92;;;1.02;;
73672;SDS011;61972;19.480;-99.240;2023-07-31T06:36:19;1.50;;;0.90;;
73672;SDS011;61972;19.480;-99.240;2023-07-31T06:38:45;1.73;;;1.00;;
73672;SDS011;61972;19.480;-99.240;2023-07-31T06:41:11;2.03;;;0.90;;
73672;SDS011;61972;19.480;-99.240;2023-07-31T06:43:37;1.60;;;0.90;;
73672;SDS011;61972;19.480;-99.240;2023-07-31T06:46:06;2.17;;;1.00;;
73672;SDS011;61972;19.480;-99.240;2023-07-31T06:48:33;1.85;;;1.00;;
73672;SDS011;61972;19.480;-99.240;2023-07-31T06:51:00;2.63;;;0.97;;
73672;SDS011;61972;19.480;-99.240;2023-07-31T06:53:26;1.85;;;1.17;;
73672;SDS011;61972;19.480;-99.240;2023-07-31T06:55:52;2.28;;;0.80;;
73672;SDS011;61972;19.480;-99.240;2023-07-31T06:58:18;2.05;;;1.08;;
73672;SDS011;61972;19.480;-99.240;2023-07-31T07:00:44;1.60;;;0.90;;
73672;SDS011;61972;19.480;-99.240;2023-07-31T07:03:10;1.57;;;0.93;;
73672;SDS011;61972;19.480;-99.240;2023-07-31T07:05:36;1.55;;;1.00;;
73672;SDS011;61972;19.480;-99.240;2023-07-31T07:08:02;2.10;;;0.85;;
73672;SDS011;61972;19.480;-99.240;2023-07-31T07:10:29;1.77;;;0.90;;
73672;SDS011;61972;19.480;-99.240;2023-07-31T07:12:55;1.60;;;0.80;;
73672;SDS011;61972;19.480;-99.240;2023-07-31T07:15:21;1.43;;;0.73;;
73672;SDS011;61972;19.480;-99.240;2023-07-31T07:17:47;1.95;;;1.00;;
73672;SDS011;61972;19.480;-99.240;2023-07-31T07:20:13;1.58;;;0.80;;
73672;SDS011;61972;19.480;-99.240;2023-07-31T07:22:39;1.70;;;0.80;;
73672;SDS011;61972;19.480;-99.240;2023-07-31T07:25:08;1.58;;;0.98;;
73672;SDS011;61972;19.480;-99.240;2023-07-31T07:27:34;1.80;;;0.90;;
73672;SDS011;61972;19.480;-99.240;2023-07-31T07:30:00;1.65;;;0.95;;
73672;SDS011;61972;19.480;-99.240;2023-07-31T07:32:27;2.17;;;0.98;;
73672;SDS011;61972;19.480;-99.240;2023-07-31T07:34:53;1.67;;;0.90;;
73672;SDS011;61972;19.480;-99.240;2023-07-31T07:37:20;1.65;;;0.90;;
73672;SDS011;61972;19.480;-99.240;2023-07-31T07:39:46;1.57;;;0.97;;
73672;SDS011;61972;19.480;-99.240;2023-07-31T07:42:12;1.55;;;0.85;;
73672;SDS011;61972;19.480;-99.240;2023-07-31T07:44:38;1.98;;;1.10;;
73672;SDS011;61972;19.480;-99.240;2023-07-31T07:47:05;1.42;;;0.88;;
73672;SDS011;61972;19.480;-99.240;2023-07-31T07:49:34;1.50;;;0.80;;
73672;SDS011;61972;19.480;-99.240;2023-07-31T07:52:00;2.77;;;0.90;;
73672;SDS011;61972;19.480;-99.240;2023-07-31T07:54:27;1.75;;;0.90;;
73672;SDS011;61972;19.480;-99.240;2023-07-31T07:56:53;1.67;;;0.70;;
73672;SDS011;61972;19.480;-99.240;2023-07-31T07:59:19;1.35;;;0.80;;
73672;SDS011;61972;19.480;-99.240;2023-07-31T08:01:45;1.30;;;0.77;;
73672;SDS011;61972;19.480;-99.240;2023-07-31T08:04:11;1.40;;;0.80;;
73672;SDS011;61972;19.480;-99.240;2023-07-31T08:06:37;1.52;;;0.80;;
73672;SDS011;61972;19.480;-99.240;2023-07-31T08:09:04;2.00;;;0.88;;
73672;SDS011;61972;19.480;-99.240;2023-07-31T08:11:32;2.10;;;0.90;;
73672;SDS011;61972;19.480;-99.240;2023-07-31T08:13:58;1.65;;;0.80;;
73672;SDS011;61972;19.480;-99.240;2023-07-31T08:16:24;1.77;;;0.80;;
73672;SDS011;61972;19.480;-99.240;2023-07-31T08:18:50;1.20;;;0.68;;
73672;SDS011;61972;19.480;-99.240;2023-07-31T08:21:16;1.67;;;0.90;;
73672;SDS011;61972;19.480;-99.240;2023-07-31T08:23:42;1.10;;;0.63;;
73672;SDS011;61972;19.480;-99.240;2023-07-31T08:26:14;1.45;;;0.80;;
73672;SDS011;61972;19.480;-99.240;2023-07-31T08:28:43;1.23;;;0.73;;
73672;SDS011;61972;19.480;-99.240;2023-07-31T08:31:09;1.30;;;0.73;;
73672;SDS011;61972;19.480;-99.240;2023-07-31T08:33:36;1.45;;;0.90;;
73672;SDS011;61972;19.480;-99.240;2023-07-31T08:36:03;1.40;;;0.70;;
73672;SDS011;61972;19.480;-99.240;2023-07-31T08:38:30;1.50;;;0.80;;
73672;SDS011;61972;19.480;-99.240;2023-07-31T08:40:56;1.37;;;0.87;;
73672;SDS011;61972;19.480;-99.240;2023-07-31T08:43:26;1.30;;;0.80;;
73672;SDS011;61972;19.480;-99.240;2023-07-31T08:45:53;1.73;;;0.80;;
73672;SDS011;61972;19.480;-99.240;2023-07-31T08:48:20;1.80;;;1.05;;
73672;SDS011;61972;19.480;-99.240;2023-07-31T08:50:47;1.50;;;0.90;;
73672;SDS011;61972;19.480;-99.240;2023-07-31T08:53:14;1.87;;;0.87;;
73672;SDS011;61972;19.480;-99.240;2023-07-31T08:55:40;1.73;;;0.90;;
73672;SDS011;61972;19.480;-99.240;2023-07-31T08:58:06;1.45;;;0.90;;
73672;SDS011;61972;19.480;-99.240;2023-07-31T09:00:33;1.60;;;0.82;;
73672;SDS011;61972;19.480;-99.240;2023-07-31T09:03:14;2.00;;;1.00;;
73672;SDS011;61972;19.480;-99.240;2023-07-31T09:05:43;1.97;;;0.80;;
73672;SDS011;61972;19.480;-99.240;2023-07-31T09:08:10;1.60;;;0.90;;
73672;SDS011;61972;19.480;-99.240;2023-07-31T09:10:42;2.22;;;0.90;;
73672;SDS011;61972;19.480;-99.240;2023-07-31T09:13:09;1.48;;;0.90;;
73672;SDS011;61972;19.480;-99.240;2023-07-31T09:15:36;1.77;;;0.80;;
73672;SDS011;61972;19.480;-99.240;2023-07-31T09:18:06;1.70;;;1.00;;
73672;SDS011;61972;19.480;-99.240;2023-07-31T09:20:33;2.83;;;0.88;;
73672;SDS011;61972;19.480;-99.240;2023-07-31T09:23:09;1.50;;;0.90;;
73672;SDS011;61972;19.480;-99.240;2023-07-31T09:25:36;1.40;;;0.90;;
73672;SDS011;61972;19.480;-99.240;2023-07-31T09:28:05;1.83;;;1.00;;
73672;SDS011;61972;19.480;-99.240;2023-07-31T09:30:46;1.40;;;0.80;;
73672;SDS011;61972;19.480;-99.240;2023-07-31T09:33:14;1.88;;;1.00;;
73672;SDS011;61972;19.480;-99.240;2023-07-31T09:35:41;1.80;;;0.98;;
73672;SDS011;61972;19.480;-99.240;2023-07-31T09:38:14;1.55;;;0.90;;
73672;SDS011;61972;19.480;-99.240;2023-07-31T09:40:42;2.08;;;1.10;;
73672;SDS011;61972;19.480;-99.240;2023-07-31T09:43:10;1.90;;;1.13;;
73672;SDS011;61972;19.480;-99.240;2023-07-31T09:45:39;1.80;;;1.00;;
73672;SDS011;61972;19.480;-99.240;2023-07-31T09:48:15;2.78;;;1.10;;
73672;SDS011;61972;19.480;-99.240;2023-07-31T09:50:46;2.22;;;1.20;;
73672;SDS011;61972;19.480;-99.240;2023-07-31T09:53:13;2.22;;;1.20;;
73672;SDS011;61972;19.480;-99.240;2023-07-31T09:55:42;1.97;;;1.00;;
73672;SDS011;61972;19.480;-99.240;2023-07-31T09:58:09;1.60;;;1.00;;
73672;SDS011;61972;19.480;-99.240;2023-07-31T10:00:36;3.13;;;1.20;;
73672;SDS011;61972;19.480;-99.240;2023-07-31T10:03:07;2.13;;;1.20;;
73672;SDS011;61972;19.480;-99.240;2023-07-31T10:05:35;2.47;;;1.30;;
73672;SDS011;61972;19.480;-99.240;2023-07-31T10:08:02;2.10;;;1.27;;
73672;SDS011;61972;19.480;-99.240;2023-07-31T10:10:29;2.03;;;1.35;;
73672;SDS011;61972;19.480;-99.240;2023-07-31T10:12:56;2.78;;;1.50;;
73672;SDS011;61972;19.480;-99.240;2023-07-31T10:15:24;2.58;;;1.40;;
73672;SDS011;61972;19.480;-99.240;2023-07-31T10:17:51;2.22;;;1.27;;
73672;SDS011;61972;19.480;-99.240;2023-07-31T10:20:19;2.47;;;1.40;;
73672;SDS011;61972;19.480;-99.240;2023-07-31T10:22:46;2.53;;;1.50;;
73672;SDS011;61972;19.480;-99.240;2023-07-31T10:25:13;2.22;;;1.27;;
73672;SDS011;61972;19.480;-99.240;2023-07-31T10:27:41;2.53;;;1.58;;
73672;SDS011;61972;19.480;-99.240;2023-07-31T10:30:17;2.25;;;1.48;;
73672;SDS011;61972;19.480;-99.240;2023-07-31T10:32:45;2.33;;;1.50;;
73672;SDS011;61972;19.480;-99.240;2023-07-31T10:35:15;1.90;;;1.40;;
73672;SDS011;61972;19.480;-99.240;2023-07-31T10:37:44;2.47;;;1.42;;
73672;SDS011;61972;19.480;-99.240;2023-07-31T10:40:24;3.10;;;1.58;;
73672;SDS011;61972;19.480;-99.240;2023-07-31T10:42:53;2.35;;;1.40;;
73672;SDS011;61972;19.480;-99.240;2023-07-31T10:45:34;2.33;;;1.47;;
73672;SDS011;61972;19.480;-99.240;2023-07-31T10:50:32;2.60;;;1.30;;
73672;SDS011;61972;19.480;-99.240;2023-07-31T10:53:03;2.83;;;1.60;;
73672;SDS011;61972;19.480;-99.240;2023-07-31T10:55:31;4.25;;;1.50;;
73672;SDS011;61972;19.480;-99.240;2023-07-31T10:58:00;2.03;;;1.37;;
73672;SDS011;61972;19.480;-99.240;2023-07-31T11:00:32;2.30;;;1.35;;
73672;SDS011;61972;19.480;-99.240;2023-07-31T11:02:59;2.17;;;1.30;;
73672;SDS011;61972;19.480;-99.240;2023-07-31T11:08:41;2.42;;;1.30;;
73672;SDS011;61972;19.480;-99.240;2023-07-31T11:13:34;2.60;;;1.30;;
73672;SDS011;61972;19.480;-99.240;2023-07-31T11:16:06;3.22;;;1.30;;
73672;SDS011;61972;19.480;-99.240;2023-07-31T11:18:32;2.00;;;1.48;;
73672;SDS011;61972;19.480;-99.240;2023-07-31T11:20:58;1.83;;;1.30;;
73672;SDS011;61972;19.480;-99.240;2023-07-31T11:23:24;2.17;;;1.60;;
73672;SDS011;61972;19.480;-99.240;2023-07-31T11:25:51;1.95;;;1.40;;
73672;SDS011;61972;19.480;-99.240;2023-07-31T11:28:17;2.55;;;1.38;;
73672;SDS011;61972;19.480;-99.240;2023-07-31T11:30:44;1.92;;;1.30;;
73672;SDS011;61972;19.480;-99.240;2023-07-31T11:33:12;2.50;;;1.40;;
73672;SDS011;61972;19.480;-99.240;2023-07-31T11:38:10;2.20;;;1.20;;
73672;SDS011;61972;19.480;-99.240;2023-07-31T11:40:49;1.90;;;1.10;;
73672;SDS011;61972;19.480;-99.240;2023-07-31T11:43:15;2.95;;;1.45;;
73672;SDS011;61972;19.480;-99.240;2023-07-31T11:45:49;3.42;;;1.40;;
73672;SDS011;61972;19.480;-99.240;2023-07-31T11:48:20;1.73;;;1.17;;
73672;SDS011;61972;19.480;-99.240;2023-07-31T11:50:52;1.90;;;1.15;;
73672;SDS011;61972;19.480;-99.240;2023-07-31T11:55:58;2.05;;;1.52;;
73672;SDS011;61972;19.480;-99.240;2023-07-31T11:58:25;3.22;;;1.40;;
73672;SDS011;61972;19.480;-99.240;2023-07-31T12:00:53;1.90;;;1.20;;
73672;SDS011;61972;19.480;-99.240;2023-07-31T12:03:19;2.08;;;1.30;;
73672;SDS011;61972;19.480;-99.240;2023-07-31T12:05:49;2.20;;;1.20;;
73672;SDS011;61972;19.480;-99.240;2023-07-31T12:08:15;4.18;;;1.40;;
73672;SDS011;61972;19.480;-99.240;2023-07-31T12:10:41;1.98;;;1.10;;
73672;SDS011;61972;19.480;-99.240;2023-07-31T12:13:10;1.83;;;1.10;;
73672;SDS011;61972;19.480;-99.240;2023-07-31T12:15:45;2.25;;;1.30;;
73672;SDS011;61972;19.480;-99.240;2023-07-31T12:18:12;2.15;;;1.10;;
73672;SDS011;61972;19.480;-99.240;2023-07-31T12:20:49;2.28;;;1.20;;
73672;SDS011;61972;19.480;-99.240;2023-07-31T12:23:24;2.10;;;1.10;;
73672;SDS011;61972;19.480;-99.240;2023-07-31T12:28:27;2.33;;;1.27;;
73672;SDS011;61972;19.480;-99.240;2023-07-31T12:30:57;2.28;;;1.10;;
73672;SDS011;61972;19.480;-99.240;2023-07-31T12:33:30;2.60;;;1.30;;
73672;SDS011;61972;19.480;-99.240;2023-07-31T12:35:58;2.10;;;1.45;;
73672;SDS011;61972;19.480;-99.240;2023-07-31T12:38:25;2.47;;;1.10;;
73672;SDS011;61972;19.480;-99.240;2023-07-31T12:40:52;2.35;;;1.30;;
73672;SDS011;61972;19.480;-99.240;2023-07-31T12:43:18;2.10;;;1.30;;
73672;SDS011;61972;19.480;-99.240;2023-07-31T12:45:44;1.73;;;1.10;;
73672;SDS011;61972;19.480;-99.240;2023-07-31T12:48:13;2.30;;;1.08;;
73672;SDS011;61972;19.480;-99.240;2023-07-31T12:50:44;1.63;;;1.10;;
73672;SDS011;61972;19.480;-99.240;2023-07-31T12:53:16;2.17;;;1.00;;
73672;SDS011;61972;19.480;-99.240;2023-07-31T12:55:48;1.60;;;1.00;;
73672;SDS011;61972;19.480;-99.240;2023-07-31T12:58:15;3.10;;;1.20;;
73672;SDS011;61972;19.480;-99.240;2023-07-31T13:00:44;2.45;;;1.30;;
73672;SDS011;61972;19.480;-99.240;2023-07-31T13:03:13;1.70;;;1.10;;
73672;SDS011;61972;19.480;-99.240;2023-07-31T13:05:39;1.88;;;1.40;;
73672;SDS011;61972;19.480;-99.240;2023-07-31T13:08:05;2.70;;;1.30;;
73672;SDS011;61972;19.480;-99.240;2023-07-31T13:10:31;1.90;;;1.13;;
73672;SDS011;61972;19.480;-99.240;2023-07-31T13:12:58;2.08;;;1.13;;
73672;SDS011;61972;19.480;-99.240;2023-07-31T13:15:24;1.97;;;1.20;;
73672;SDS011;61972;19.480;-99.240;2023-07-31T13:17:50;2.97;;;1.23;;
73672;SDS011;61972;19.480;-99.240;2023-07-31T13:20:16;4.07;;;1.20;;
73672;SDS011;61972;19.480;-99.240;2023-07-31T13:22:42;2.45;;;1.38;;
73672;SDS011;61972;19.480;-99.240;2023-07-31T13:25:08;2.10;;;1.13;;
73672;SDS011;61972;19.480;-99.240;2023-07-31T13:27:35;4.90;;;1.40;;
73672;SDS011;61972;19.480;-99.240;2023-07-31T13:30:01;2.72;;;1.30;;
73672;SDS011;61972;19.480;-99.240;2023-07-31T13:32:28;4.22;;;1.20;;
73672;SDS011;61972;19.480;-99.240;2023-07-31T13:34:54;2.67;;;1.17;;
73672;SDS011;61972;19.480;-99.240;2023-07-31T13:37:21;1.92;;;1.00;;
73672;SDS011;61972;19.480;-99.240;2023-07-31T13:39:51;1.83;;;1.10;;
73672;SDS011;61972;19.480;-99.240;2023-07-31T13:42:17;1.95;;;1.00;;
73672;SDS011;61972;19.480;-99.240;2023-07-31T13:44:43;2.20;;;1.00;;
73672;SDS011;61972;19.480;-99.240;2023-07-31T13:47:09;1.60;;;1.10;;
73672;SDS011;61972;19.480;-99.240;2023-07-31T13:49:36;1.75;;;1.10;;
73672;SDS011;61972;19.480;-99.240;2023-07-31T13:52:04;3.50;;;1.00;;
73672;SDS011;61972;19.480;-99.240;2023-07-31T13:54:30;1.90;;;1.20;;
73672;SDS011;61972;19.480;-99.240;2023-07-31T13:56:56;3.30;;;1.10;;
73672;SDS011;61972;19.480;-99.240;2023-07-31T13:59:22;2.33;;;1.10;;
73672;SDS011;61972;19.480;-99.240;2023-07-31T14:01:49;1.70;;;1.05;;
73672;SDS011;61972;19.480;-99.240;2023-07-31T14:04:16;1.63;;;1.10;;
73672;SDS011;61972;19.480;-99.240;2023-07-31T14:06:43;2.05;;;1.33;;
73672;SDS011;61972;19.480;-99.240;2023-07-31T14:09:09;2.35;;;1.08;;
73672;SDS011;61972;19.480;-99.240;2023-07-31T14:11:35;2.17;;;1.02;;
73672;SDS011;61972;19.480;-99.240;2023-07-31T14:14:01;3.25;;;1.00;;
73672;SDS011;61972;19.480;-99.240;2023-07-31T14:16:28;1.70;;;0.90;;
73672;SDS011;61972;19.480;-99.240;2023-07-31T14:18:54;1.83;;;1.10;;
73672;SDS011;61972;19.480;-99.240;2023-07-31T14:21:21;1.90;;;0.95;;
73672;SDS011;61972;19.480;-99.240;2023-07-31T14:23:47;2.38;;;0.98;;
73672;SDS011;61972;19.480;-99.240;2023-07-31T14:26:13;1.85;;;1.00;;
73672;SDS011;61972;19.480;-99.240;2023-07-31T14:28:39;1.90;;;1.20;;
73672;SDS011;61972;19.480;-99.240;2023-07-31T14:31:05;2.08;;;1.30;;
73672;SDS011;61972;19.480;-99.240;2023-07-31T14:33:31;2.20;;;1.30;;
73672;SDS011;61972;19.480;-99.240;2023-07-31T14:35:57;1.70;;;1.08;;
73672;SDS011;61972;19.480;-99.240;2023-07-31T14:38:24;2.63;;;1.10;;
73672;SDS011;61972;19.480;-99.240;2023-07-31T14:40:50;1.60;;;0.90;;
73672;SDS011;61972;19.480;-99.240;2023-07-31T14:43:17;2.38;;;1.17;;
73672;SDS011;61972;19.480;-99.240;2023-07-31T14:45:43;1.88;;;1.00;;